Ettrick, Wisconsin
Current Conditions -  °F | °C
As of 3:53 AM on Friday 28 Nov 2014 (Local Time) from KLSE Reporting Station
Light Snow Light Snow  
Wind Chill:   Ceiling: 2100
Heat Index: 14°   Visibility: 1.7mi
Dew Point:   Wind: 7mph
Humidity: 80%   Direction: 130°SE
Pressure: 30.23"   Gusts: NA
Location:  44.17°N, 91.27°W
Report Text: KLSE 280953Z AUTO 13006KT 1 3/4SM -SN OVC021 M10/M13 A3023 RMK AO2 SLP259 P0002 T11001128
Loading
Personal Weather Stations






























Interactive Weather Map New forecast layout! Learn more

10-Day Weather Forecast

Advertisements
Track Severe Weather on mobile